Terminal Aerodrome Forecast
Issued by NWS

Home | Current Version | Previous Version | Text Only | Print | Product List | Glossary Off
Versions: 1 2 3 4 5 6 7 8 9 10 11 12 13 14 15 16 17 18 19 20

692
FTUS43 KTOP 050932 AAB
TAFFOE
TAF AMD
KFOE 050932Z 0510/0606 15005KT 3SM BR SKC
     FM051200 17006KT 2SM BR BKN006
     FM051700 18013G23KT P6SM SKC=

USA.gov is the U.S. government's official web portal to all federal, state and local government web resources and services.